Time;durP1;ratioP1;P1;durP2;ratioP2;P2;SDS_P1;SDS_P2;PMS_P1;PMS_P2;Temp;Humidity;BMP_temperature;BMP_pressure;BME280_temperature;BME280_humidity;BME280_pressure;Samples;Min_cycle;Max_cycle;Signal;HPM_P1;HPM_P2
2022/06/24 00:00:06;;;;;;;;;5.67;4.33;;;;;29.99;38.51;100513.06;5062458;28;45573;-66
2022/06/24 00:02:31;;;;;;;;;7.00;4.33;;;;;30.01;39.18;100510.84;5055418;28;45432;-67
2022/06/24 00:04:59;;;;;;;;;5.33;5.33;;;;;30.00;40.27;100517.56;5062980;28;45433;-66
2022/06/24 00:07:25;;;;;;;;;6.00;6.00;;;;;29.73;38.14;100526.19;5059180;28;45706;-66
2022/06/24 00:09:50;;;;;;;;;4.33;4.33;;;;;29.76;38.53;100522.00;5063993;28;45309;-67
2022/06/24 00:12:19;;;;;;;;;5.33;5.33;;;;;29.78;39.05;100525.38;5058767;28;46463;-66
2022/06/24 00:14:57;;;;;;;;;5.00;5.00;;;;;29.87;38.92;100526.50;5064184;28;45348;-66
2022/06/24 00:17:27;;;;;;;;;4.33;4.33;;;;;29.94;39.27;100531.84;5061105;28;45244;-66
2022/06/24 00:20:02;;;;;;;;;7.33;6.00;;;;;29.74;40.75;100518.66;5079511;28;45378;-66
2022/06/24 00:22:30;;;;;;;;;5.67;5.67;;;;;29.71;41.66;100538.81;5061668;28;47015;-66
2022/06/24 00:25:10;;;;;;;;;0.33;0.33;;;;;29.68;42.88;100533.78;5062979;28;45559;-67
2022/06/24 00:27:36;;;;;;;;;6.00;5.00;;;;;29.74;42.42;100532.66;5063701;28;45287;-67
2022/06/24 00:30:13;;;;;;;;;8.00;6.00;;;;;29.68;43.91;100536.56;5078655;28;45291;-67
2022/06/24 00:32:39;;;;;;;;;6.00;6.00;;;;;29.34;45.68;100536.25;5061752;28;45537;-66
2022/06/24 00:35:16;;;;;;;;;6.00;6.00;;;;;29.20;46.28;100533.16;5062597;28;45455;-66
2022/06/24 00:37:43;;;;;;;;;5.00;5.00;;;;;29.35;46.07;100537.97;5063569;28;45435;-66
2022/06/24 00:40:11;;;;;;;;;8.00;6.33;;;;;29.11;46.05;100533.94;5062552;28;45163;-66
2022/06/24 00:42:39;;;;;;;;;8.67;6.67;;;;;29.22;47.11;100530.06;5063353;28;45321;-67
2022/06/24 00:45:24;;;;;;;;;7.00;6.33;;;;;29.27;46.34;100536.50;5062866;28;45585;-66
2022/06/24 00:47:51;;;;;;;;;7.67;7.67;;;;;29.00;46.83;100533.91;5063835;28;45353;-67
2022/06/24 00:50:23;;;;;;;;;7.00;7.00;;;;;28.75;45.94;100535.75;5062512;28;45438;-66
2022/06/24 00:52:52;;;;;;;;;9.67;7.67;;;;;28.93;45.59;100541.72;5059972;28;45553;-67
2022/06/24 00:55:19;;;;;;;;;10.00;8.67;;;;;28.97;47.80;100539.22;5062287;28;45534;-67
2022/06/24 00:57:45;;;;;;;;;8.33;7.00;;;;;28.96;46.50;100534.75;5062192;28;45233;-68
2022/06/24 01:00:13;;;;;;;;;7.00;7.00;;;;;28.95;46.69;100544.25;5061873;28;45405;-66
2022/06/24 01:02:41;;;;;;;;;6.33;6.00;;;;;28.89;46.22;100537.81;5074857;28;46807;-67
2022/06/24 01:05:08;;;;;;;;;9.33;7.33;;;;;28.94;46.73;100526.63;5061969;28;45296;-67
2022/06/24 01:07:40;;;;;;;;;3.67;2.33;;;;;28.74;47.04;100523.72;5059569;28;45336;-67
2022/06/24 01:10:08;;;;;;;;;7.67;6.33;;;;;29.10;45.93;100530.31;5061946;28;45572;-67
2022/06/24 01:12:35;;;;;;;;;5.67;5.67;;;;;29.23;45.16;100526.97;5059049;28;46353;-67
2022/06/24 01:15:05;;;;;;;;;5.00;5.00;;;;;29.32;44.61;100525.31;5061302;28;45440;-67
2022/06/24 01:17:30;;;;;;;;;5.67;5.67;;;;;29.20;45.91;100530.34;5059089;28;45520;-67
2022/06/24 01:19:56;;;;;;;;;5.00;5.00;;;;;29.15;45.82;100518.31;5061231;28;45535;-66
2022/06/24 01:22:23;;;;;;;;;4.00;4.00;;;;;29.14;45.64;100520.25;5058869;28;45445;-66
2022/06/24 01:24:49;;;;;;;;;6.00;5.00;;;;;29.13;45.70;100506.53;5059097;28;45210;-67
2022/06/24 01:27:15;;;;;;;;;4.00;4.00;;;;;29.16;45.94;100518.00;5059220;28;45544;-67
2022/06/24 01:29:41;;;;;;;;;6.00;5.00;;;;;29.09;46.35;100517.44;5063956;28;45435;-66
2022/06/24 01:32:07;;;;;;;;;6.33;6.33;;;;;28.93;46.66;100504.56;5061225;28;46973;-66
2022/06/24 01:34:32;;;;;;;;;5.00;5.00;;;;;28.92;47.01;100505.66;5079441;27;45375;-66
2022/06/24 01:36:57;;;;;;;;;6.00;5.00;;;;;28.99;46.86;100512.69;5059572;28;48049;-66
2022/06/24 01:39:23;;;;;;;;;5.00;5.00;;;;;28.96;46.11;100493.63;5064106;28;45402;-66
2022/06/24 01:41:50;;;;;;;;;1.67;1.67;;;;;28.94;46.33;100509.84;5054234;28;47594;-66
2022/06/24 01:44:15;;;;;;;;;5.33;5.33;;;;;28.88;47.03;100516.53;5063312;28;45318;-66
2022/06/24 01:46:40;;;;;;;;;6.00;6.00;;;;;29.03;46.09;100522.19;5054710;28;45406;-66
2022/06/24 01:49:07;;;;;;;;;4.33;4.00;;;;;29.12;45.94;100539.28;5063661;28;45684;-66
2022/06/24 01:51:33;;;;;;;;;4.00;4.00;;;;;28.95;46.48;100527.47;5055464;28;45547;-66
2022/06/24 01:53:59;;;;;;;;;6.33;5.00;;;;;29.02;46.98;100556.03;5062834;28;45424;-67
2022/06/24 01:56:24;;;;;;;;;5.00;5.00;;;;;28.69;53.45;100559.22;5060157;28;45330;-66
2022/06/24 01:58:50;;;;;;;;;5.67;5.00;;;;;28.28;59.94;100556.19;5062025;28;45246;-65
2022/06/24 02:01:15;;;;;;;;;8.33;6.00;;;;;27.88;60.69;100543.59;5060289;28;45389;-67
2022/06/24 02:03:41;;;;;;;;;9.00;7.00;;;;;27.53;82.89;100568.44;5061639;28;45291;-66
2022/06/24 02:06:08;;;;;;;;;9.67;8.00;;;;;27.27;73.46;100566.44;5059499;28;45168;-66
2022/06/24 02:08:34;;;;;;;;;6.33;6.33;;;;;26.80;78.86;100555.00;5063104;28;45583;-66
2022/06/24 02:13:46;;;;;;;;;8.33;5.33;;;;;26.68;79.48;100547.59;5059425;28;45404;-66
2022/06/24 02:16:12;;;;;;;;;9.00;7.67;;;;;26.67;79.70;100545.06;5057224;28;45417;-64
2022/06/24 02:18:38;;;;;;;;;6.00;6.00;;;;;26.86;76.40;100543.66;5063347;28;45432;-67
2022/06/24 02:21:04;;;;;;;;;6.00;6.00;;;;;26.92;74.40;100537.06;5056420;28;46003;-66
2022/06/24 02:23:30;;;;;;;;;7.33;6.00;;;;;26.87;77.77;100536.13;5060610;28;45996;-65
2022/06/24 02:25:56;;;;;;;;;6.33;6.33;;;;;26.88;74.40;100535.88;5056359;28;45381;-65
2022/06/24 02:28:22;;;;;;;;;6.33;6.33;;;;;26.99;71.47;100534.91;5063043;28;45336;-65
2022/06/24 02:30:52;;;;;;;;;5.33;5.33;;;;;27.09;71.13;100540.59;5058722;28;46191;-66
2022/06/24 02:33:17;;;;;;;;;5.67;4.33;;;;;26.98;70.06;100544.38;5061408;28;45483;-65
2022/06/24 02:35:42;;;;;;;;;6.00;6.00;;;;;26.97;71.97;100556.63;5060031;28;45467;-65
2022/06/24 02:38:08;;;;;;;;;3.00;3.00;;;;;26.97;72.69;100556.63;5062686;28;45556;-65
2022/06/24 02:40:45;;;;;;;;;8.33;6.00;;;;;26.93;80.23;100557.41;5060274;28;46367;-66
2022/06/24 02:43:21;;;;;;;;;7.67;7.67;;;;;26.33;92.04;100567.47;5061178;28;45325;-66
2022/06/24 02:46:01;;;;;;;;;7.33;5.67;;;;;26.01;95.34;100554.41;5060678;28;45401;-66
2022/06/24 02:48:28;;;;;;;;;11.00;8.00;;;;;25.61;100.00;100537.88;5060710;28;45377;-65
2022/06/24 02:50:59;;;;;;;;;7.33;7.33;;;;;25.62;98.21;100532.06;5056469;28;46108;-65
2022/06/24 02:53:25;;;;;;;;;10.67;10.00;;;;;25.49;91.99;100516.53;5062058;28;45346;-65
2022/06/24 02:55:53;;;;;;;;;12.00;9.00;;;;;25.57;89.21;100512.44;5058975;28;45362;-65
2022/06/24 02:58:19;;;;;;;;;5.33;5.33;;;;;25.47;91.82;100518.72;5056477;28;45263;-65
2022/06/24 03:00:45;;;;;;;;;10.33;7.00;;;;;25.41;92.26;100516.09;5059263;28;45410;-65
2022/06/24 03:03:15;;;;;;;;;8.00;8.00;;;;;25.60;92.14;100514.78;5060716;28;45223;-65
2022/06/24 03:05:41;;;;;;;;;10.33;10.00;;;;;25.51;91.34;100519.03;5059103;28;45459;-64
2022/06/24 03:08:08;;;;;;;;;9.00;9.00;;;;;25.58;92.69;100515.00;5061631;28;45788;-65
2022/06/24 03:10:34;;;;;;;;;12.67;10.67;;;;;25.58;89.51;100520.59;5057500;28;45316;-65
2022/06/24 03:13:01;;;;;;;;;10.00;9.33;;;;;25.72;88.44;100514.69;5059651;28;47073;-64
2022/06/24 03:15:26;;;;;;;;;10.67;8.00;;;;;25.83;86.68;100511.81;5059035;28;45404;-64
2022/06/24 03:17:52;;;;;;;;;6.67;6.67;;;;;25.91;89.24;100503.03;5074785;28;45393;-65
2022/06/24 03:20:17;;;;;;;;;8.00;8.00;;;;;25.91;86.26;100504.97;5058493;28;46662;-64
2022/06/24 03:22:42;;;;;;;;;4.67;4.67;;;;;25.93;82.26;100500.00;5055102;28;45978;-65
2022/06/24 03:25:08;;;;;;;;;5.33;5.33;;;;;26.02;81.78;100514.31;5060208;28;45401;-65
2022/06/24 03:27:35;;;;;;;;;5.33;5.33;;;;;25.79;84.31;100513.41;5058772;28;45397;-65
2022/06/24 03:30:00;;;;;;;;;5.67;5.00;;;;;25.83;84.96;100508.19;5060131;28;45544;-65
2022/06/24 03:32:25;;;;;;;;;6.00;6.00;;;;;25.80;82.58;100505.91;5073721;28;45425;-65
2022/06/24 03:34:51;;;;;;;;;5.67;5.67;;;;;25.82;83.63;100504.56;5063715;28;45338;-65
2022/06/24 03:37:17;;;;;;;;;5.33;5.33;;;;;25.82;81.69;100509.28;5063051;28;45333;-65
2022/06/24 03:39:42;;;;;;;;;6.00;6.00;;;;;25.79;85.15;100507.03;5065368;28;45479;-65
2022/06/24 03:42:08;;;;;;;;;5.00;5.00;;;;;25.81;85.41;100507.59;5061593;28;45413;-65
2022/06/24 03:44:33;;;;;;;;;6.00;6.00;;;;;25.66;87.42;100510.97;5065188;28;45358;-66
2022/06/24 03:47:01;;;;;;;;;7.00;6.33;;;;;25.55;86.85;100504.38;5057202;28;45396;-65
2022/06/24 03:49:26;;;;;;;;;6.00;6.00;;;;;25.59;86.37;100494.44;5065118;28;46756;-65
2022/06/24 03:51:51;;;;;;;;;5.67;5.67;;;;;25.68;81.82;100497.66;5055603;28;45243;-65
2022/06/24 03:54:17;;;;;;;;;10.33;7.67;;;;;25.54;80.91;100499.06;5065350;28;45221;-65
2022/06/24 03:56:42;;;;;;;;;33.00;31.75;;;;;25.53;83.41;100505.72;5058629;28;45377;-65
2022/06/24 03:59:08;;;;;;;;;5.00;5.00;;;;;25.53;81.08;100503.78;5080344;27;51285;-65
2022/06/24 04:01:33;;;;;;;;;5.33;5.33;;;;;25.31;82.50;100500.06;5061176;28;45425;-66
2022/06/24 04:03:58;;;;;;;;;4.00;4.00;;;;;25.29;81.46;100502.25;5065016;28;45365;-65
2022/06/24 04:06:24;;;;;;;;;4.00;4.00;;;;;25.16;81.81;100499.78;5062678;28;45548;-66
2022/06/24 04:08:49;;;;;;;;;4.00;4.00;;;;;25.28;81.52;100500.53;5064540;28;45378;-66
2022/06/24 04:11:17;;;;;;;;;7.33;6.00;;;;;25.32;81.09;100498.97;5058368;28;45463;-66
2022/06/24 04:13:43;;;;;;;;;5.00;5.00;;;;;25.25;81.74;100492.72;5064766;28;45416;-66
2022/06/24 04:16:09;;;;;;;;;5.33;5.33;;;;;25.32;82.18;100501.75;5058190;28;45460;-66
2022/06/24 04:18:35;;;;;;;;;8.00;8.00;;;;;25.38;81.53;100509.09;5063184;28;47144;-66
2022/06/24 04:21:01;;;;;;;;;6.00;6.00;;;;;25.24;81.43;100507.72;5058344;28;45350;-66
2022/06/24 04:23:26;;;;;;;;;5.67;5.67;;;;;25.28;82.60;100511.66;5060270;28;45363;-66
2022/06/24 04:25:52;;;;;;;;;6.33;5.33;;;;;25.37;79.92;100512.09;5059432;28;45424;-66
2022/06/24 04:28:18;;;;;;;;;6.00;6.00;;;;;25.39;81.80;100516.34;5064172;28;45667;-66
2022/06/24 04:30:43;;;;;;;;;7.33;6.33;;;;;25.49;83.23;100516.53;5060025;28;45344;-66
2022/06/24 04:33:09;;;;;;;;;7.00;5.00;;;;;25.49;84.83;100516.53;5063097;28;45427;-66
2022/06/24 04:35:35;;;;;;;;;6.00;6.00;;;;;25.43;83.40;100502.75;5061702;28;45290;-66
2022/06/24 04:38:00;;;;;;;;;7.00;5.33;;;;;25.34;81.58;100512.63;5062601;28;47010;-66
2022/06/24 04:40:26;;;;;;;;;6.00;6.00;;;;;25.61;83.94;100515.63;5062228;28;45326;-66
2022/06/24 04:42:51;;;;;;;;;6.00;6.00;;;;;25.82;78.32;100509.28;5064017;28;45243;-66
2022/06/24 04:45:17;;;;;;;;;5.00;5.00;;;;;25.96;78.64;100514.25;5061769;28;45590;-66
2022/06/24 04:47:42;;;;;;;;;6.67;6.67;;;;;26.13;78.92;100516.16;5062070;28;49470;-66
2022/06/24 04:50:09;;;;;;;;;5.67;5.67;;;;;26.28;77.25;100510.84;5062525;28;45343;-66
2022/06/24 04:52:35;;;;;;;;;7.00;7.00;;;;;26.49;77.50;100517.53;5058945;28;45429;-66
2022/06/24 04:55:01;;;;;;;;;6.33;5.67;;;;;26.62;78.03;100514.34;5062870;28;45453;-67
2022/06/24 04:57:27;;;;;;;;;5.67;5.67;;;;;26.59;75.98;100506.53;5059891;28;45999;-67
2022/06/24 04:59:52;;;;;;;;;6.00;6.00;;;;;26.78;77.30;100509.81;5062533;28;45429;-67
2022/06/24 05:02:18;;;;;;;;;6.00;6.00;;;;;26.46;74.93;100509.69;5057459;28;45475;-66
2022/06/24 05:04:43;;;;;;;;;7.00;4.67;;;;;26.52;72.08;100498.34;5063529;28;45273;-66
2022/06/24 05:07:09;;;;;;;;;6.00;6.00;;;;;26.68;74.02;100505.78;5056978;28;46775;-66
2022/06/24 05:09:35;;;;;;;;;8.33;7.00;;;;;26.42;74.04;100508.53;5062975;28;45336;-66
2022/06/24 05:12:01;;;;;;;;;5.33;5.33;;;;;26.53;73.08;100507.53;5056486;28;45481;-66
2022/06/24 05:14:27;;;;;;;;;9.67;8.00;;;;;26.49;73.66;100511.97;5063615;28;45532;-66
2022/06/24 05:16:53;;;;;;;;;5.33;5.33;;;;;26.20;73.59;100523.25;5055317;28;45795;-66
2022/06/24 05:19:18;;;;;;;;;7.67;6.67;;;;;26.15;75.07;100512.03;5062673;28;45406;-66
2022/06/24 05:21:44;;;;;;;;;3.00;3.00;;;;;25.99;74.58;100524.03;5059610;28;45498;-66
2022/06/24 05:24:09;;;;;;;;;3.00;3.00;;;;;26.00;75.07;100514.59;5062379;28;45386;-66
2022/06/24 05:26:34;;;;;;;;;5.67;5.00;;;;;25.78;75.71;100511.75;5059225;28;46171;-67
2022/06/24 05:29:00;;;;;;;;;7.33;7.33;;;;;25.51;78.05;100507.91;5061800;28;45187;-66
2022/06/24 05:31:25;;;;;;;;;7.00;7.00;;;;;25.65;77.07;100502.88;5059300;28;45774;-65
2022/06/24 05:33:51;;;;;;;;;8.00;6.67;;;;;25.45;78.31;100508.91;5062339;28;45222;-66
2022/06/24 05:36:16;;;;;;;;;7.00;6.33;;;;;25.57;76.92;100507.72;5060305;28;45399;-65
2022/06/24 05:38:42;;;;;;;;;5.67;5.67;;;;;26.09;76.96;100510.25;5062156;28;45187;-66
2022/06/24 05:41:08;;;;;;;;;8.00;7.00;;;;;27.03;71.60;100516.53;5058163;28;45413;-65
2022/06/24 05:43:33;;;;;;;;;5.00;5.00;;;;;27.84;65.71;100510.88;5056218;28;45413;-65
2022/06/24 05:45:59;;;;;;;;;8.00;6.67;;;;;29.16;61.75;100520.81;5058411;28;46234;-66
2022/06/24 05:48:24;;;;;;;;;6.00;6.00;;;;;28.82;61.03;100523.25;5055554;28;45391;-66
2022/06/24 05:50:50;;;;;;;;;5.67;5.00;;;;;28.17;63.52;100521.78;5060514;28;45281;-66
2022/06/24 05:56:00;;;;;;;;;5.00;5.00;;;;;27.17;67.21;100525.34;5058803;28;45667;-66
2022/06/24 05:58:27;;;;;;;;;8.67;8.33;;;;;27.00;70.83;100525.44;5060453;28;45392;-66
2022/06/24 06:00:56;;;;;;;;;5.67;5.67;;;;;26.97;69.10;100525.94;5058290;28;45335;-65
2022/06/24 06:03:23;;;;;;;;;8.67;8.67;;;;;26.73;70.20;100532.91;5077469;28;45317;-65
2022/06/24 06:05:48;;;;;;;;;9.00;9.00;;;;;26.55;71.49;100527.63;5055587;28;45400;-65
2022/06/24 06:08:14;;;;;;;;;8.67;7.00;;;;;26.55;73.37;100534.06;5059708;28;45350;-66
2022/06/24 06:10:40;;;;;;;;;9.00;9.00;;;;;26.56;72.10;100538.53;5057076;28;45395;-66
2022/06/24 06:13:06;;;;;;;;;8.33;5.00;;;;;26.59;70.68;100542.75;5060877;28;45300;-66
2022/06/24 06:15:31;;;;;;;;;8.33;8.00;;;;;26.47;71.32;100534.50;5057861;28;46539;-66
2022/06/24 06:17:59;;;;;;;;;7.67;7.67;;;;;26.56;69.93;100543.25;5058963;28;45489;-66
2022/06/24 06:20:25;;;;;;;;;9.33;8.33;;;;;26.47;72.65;100539.22;5058877;28;45367;-66
2022/06/24 06:22:50;;;;;;;;;8.67;7.00;;;;;26.63;70.80;100544.75;5061713;28;45223;-65
2022/06/24 06:25:16;;;;;;;;;7.00;7.00;;;;;26.61;71.62;100540.53;5057966;28;47500;-68
2022/06/24 06:27:41;;;;;;;;;5.00;5.00;;;;;26.59;69.82;100531.59;5057141;28;45201;-65
2022/06/24 06:30:07;;;;;;;;;9.67;6.67;;;;;26.71;69.85;100546.25;5074802;27;45527;-67
2022/06/24 06:32:33;;;;;;;;;7.00;7.00;;;;;26.70;69.13;100531.47;5059478;28;45265;-67
2022/06/24 06:34:59;;;;;;;;;6.67;6.67;;;;;26.87;68.33;100544.50;5059819;28;45545;-67
2022/06/24 06:37:24;;;;;;;;;10.67;8.67;;;;;26.77;68.15;100556.34;5058688;28;45419;-68
2022/06/24 06:39:49;;;;;;;;;6.00;6.00;;;;;26.77;68.90;100545.19;5060462;28;45295;-67
2022/06/24 06:42:15;;;;;;;;;7.00;7.00;;;;;26.77;68.70;100548.00;5053579;28;45366;-66
2022/06/24 06:44:40;;;;;;;;;9.33;6.67;;;;;26.64;67.85;100552.00;5061449;28;45362;-67
2022/06/24 06:47:06;;;;;;;;;6.00;6.00;;;;;26.61;68.17;100548.88;5050527;28;45695;-68
2022/06/24 06:49:32;;;;;;;;;5.67;5.67;;;;;26.71;67.25;100544.31;5061535;28;45430;-66
2022/06/24 06:52:00;;;;;;;;;6.33;6.33;;;;;26.82;66.33;100548.03;5054373;28;45477;-67
2022/06/24 06:54:25;;;;;;;;;5.00;5.00;;;;;26.90;65.85;100553.19;5061679;28;45426;-66
2022/06/24 06:56:50;;;;;;;;;7.33;6.67;;;;;26.93;66.50;100555.47;5059149;28;45421;-66
2022/06/24 06:59:16;;;;;;;;;6.33;5.33;;;;;27.02;66.18;100547.50;5061952;28;45364;-65
2022/06/24 07:01:41;;;;;;;;;5.33;5.33;;;;;27.10;64.95;100561.78;5059210;28;45397;-67
2022/06/24 07:04:06;;;;;;;;;6.00;4.00;;;;;26.90;65.92;100553.19;5061666;28;46324;-66
2022/06/24 07:06:32;;;;;;;;;8.33;7.00;;;;;27.06;64.75;100549.47;5057662;28;45323;-67
2022/06/24 07:08:57;;;;;;;;;6.67;6.33;;;;;27.04;65.46;100559.19;5062803;28;45286;-66
2022/06/24 07:11:22;;;;;;;;;6.67;5.33;;;;;27.12;64.59;100558.75;5061014;28;45567;-67
2022/06/24 07:13:48;;;;;;;;;7.00;7.00;;;;;27.14;65.94;100564.91;5065202;28;46363;-67
2022/06/24 07:16:13;;;;;;;;;9.00;7.33;;;;;26.85;67.97;100557.84;5059070;28;45349;-67
2022/06/24 07:18:38;;;;;;;;;4.33;4.33;;;;;26.97;65.45;100553.84;5065313;28;45283;-67
2022/06/24 07:21:04;;;;;;;;;6.33;5.00;;;;;27.22;64.28;100549.66;5075259;27;45300;-67
2022/06/24 07:23:29;;;;;;;;;4.00;4.00;;;;;27.34;63.65;100541.97;5060751;28;45310;-67
2022/06/24 07:25:56;;;;;;;;;6.67;5.00;;;;;27.44;63.32;100544.84;5060428;28;45931;-65
2022/06/24 07:28:21;;;;;;;;;7.67;6.67;;;;;27.50;62.09;100535.44;5064011;28;45313;-65
2022/06/24 07:30:47;;;;;;;;;7.00;7.00;;;;;27.55;62.23;100535.50;5061010;28;45436;-66
2022/06/24 07:33:12;;;;;;;;;8.67;6.00;;;;;27.12;62.38;100537.28;5064188;28;45372;-66
2022/06/24 07:35:37;;;;;;;;;7.67;6.67;;;;;27.30;63.90;100529.66;5062062;28;45465;-66
2022/06/24 07:38:03;;;;;;;;;7.33;6.00;;;;;27.15;63.43;100540.66;5065000;28;45327;-66
2022/06/24 07:40:28;;;;;;;;;7.00;6.00;;;;;27.01;63.49;100535.50;5062982;28;45390;-66
2022/06/24 07:42:54;;;;;;;;;7.00;6.00;;;;;27.38;63.35;100540.34;5060284;28;45374;-66
2022/06/24 07:45:19;;;;;;;;;4.33;4.33;;;;;27.84;60.41;100525.69;5062668;28;46540;-66
2022/06/24 07:47:45;;;;;;;;;10.00;7.67;;;;;28.00;60.08;100532.22;5059531;28;45456;-66
2022/06/24 07:50:10;;;;;;;;;9.00;8.00;;;;;28.30;58.03;100533.56;5062793;28;45436;-67
2022/06/24 07:52:36;;;;;;;;;6.00;6.00;;;;;28.49;57.55;100532.84;5060062;28;45616;-67
2022/06/24 07:57:45;;;;;;;;;7.33;7.00;;;;;28.93;55.58;100538.13;5059997;28;45388;-66
2022/06/24 08:00:11;;;;;;;;;6.00;6.00;;;;;28.50;56.43;100534.53;5062790;28;45439;-67
2022/06/24 08:02:36;;;;;;;;;5.33;3.33;;;;;28.19;55.66;100529.91;5060519;28;45421;-67
2022/06/24 08:05:01;;;;;;;;;7.67;6.00;;;;;27.93;58.12;100522.41;5063374;28;45287;-67
2022/06/24 08:07:27;;;;;;;;;8.00;8.00;;;;;28.18;56.90;100533.78;5060597;28;45991;-68
2022/06/24 08:09:52;;;;;;;;;6.67;6.00;;;;;28.63;56.51;100531.25;5064150;28;45391;-68
2022/06/24 08:12:17;;;;;;;;;7.00;7.00;;;;;28.82;55.88;100525.19;5060227;28;45456;-67
2022/06/24 08:14:43;;;;;;;;;5.00;5.00;;;;;28.59;55.14;100532.06;5063811;28;45269;-67
2022/06/24 08:17:08;;;;;;;;;5.00;5.00;;;;;28.35;55.64;100537.22;5061796;28;45376;-68
2022/06/24 08:19:33;;;;;;;;;8.00;5.00;;;;;28.59;55.55;100538.47;5064197;28;45327;-67
2022/06/24 08:21:59;;;;;;;;;4.00;4.00;;;;;28.45;54.33;100537.31;5055456;28;46773;-67
2022/06/24 08:24:24;;;;;;;;;7.00;7.00;;;;;28.03;55.33;100534.50;5062174;28;45288;-69
2022/06/24 08:26:49;;;;;;;;;6.33;6.33;;;;;28.49;54.73;100552.41;5059966;28;45518;-67
2022/06/24 08:29:15;;;;;;;;;6.00;4.67;;;;;28.73;53.85;100526.78;5061484;28;45302;-68
2022/06/24 08:31:40;;;;;;;;;7.00;5.33;;;;;28.53;54.62;100539.59;5059701;28;46399;-68
2022/06/24 08:34:05;;;;;;;;;6.00;5.00;;;;;28.90;52.27;100536.69;5063827;28;45638;-68
2022/06/24 08:36:31;;;;;;;;;5.00;5.00;;;;;28.82;51.31;100530.78;5060958;28;45278;-68
2022/06/24 08:38:56;;;;;;;;;5.00;5.00;;;;;28.78;52.54;100532.47;5064382;28;45306;-68
2022/06/24 08:41:23;;;;;;;;;7.00;6.00;;;;;29.18;51.46;100521.38;5057197;28;45495;-68
2022/06/24 08:43:51;;;;;;;;;4.00;4.00;;;;;29.37;51.54;100533.75;5063555;28;46222;-69
2022/06/24 08:46:17;;;;;;;;;5.00;5.00;;;;;29.28;50.71;100532.59;5057596;28;45310;-67
2022/06/24 08:48:42;;;;;;;;;6.00;4.67;;;;;29.26;50.41;100533.97;5062164;28;45367;-67
2022/06/24 08:51:11;;;;;;;;;5.00;5.00;;;;;29.05;50.16;100535.91;5058277;28;45359;-67
2022/06/24 08:53:39;;;;;;;;;5.33;4.00;;;;;28.41;51.06;100533.38;5063411;28;45290;-67
2022/06/24 08:56:05;;;;;;;;;4.33;4.00;;;;;28.87;50.41;100530.78;5074112;27;45234;-67
2022/06/24 08:58:31;;;;;;;;;6.00;4.33;;;;;28.97;49.84;100516.84;5063462;28;45394;-67
2022/06/24 09:00:56;;;;;;;;;3.00;3.00;;;;;29.15;49.25;100519.13;5060843;28;45275;-67
2022/06/24 09:03:21;;;;;;;;;3.67;3.67;;;;;29.34;50.20;100517.53;5060053;28;45420;-67
2022/06/24 09:05:48;;;;;;;;;4.33;4.33;;;;;29.66;49.59;100506.03;5061819;28;45446;-67
2022/06/24 09:08:15;;;;;;;;;3.00;3.00;;;;;29.59;48.68;100510.28;5061476;28;45522;-67
2022/06/24 09:10:44;;;;;;;;;3.67;3.00;;;;;29.62;46.84;100492.91;5060660;28;46433;-67
2022/06/24 09:13:21;;;;;;;;;4.00;3.00;;;;;29.17;48.55;100508.50;5061689;28;45391;-67
2022/06/24 09:15:53;;;;;;;;;4.33;2.00;;;;;29.73;47.83;100500.19;5059083;28;45459;-68
2022/06/24 09:18:23;;;;;;;;;3.00;3.00;;;;;30.34;46.61;100492.53;5061926;28;45356;-68
2022/06/24 09:20:50;;;;;;;;;4.67;4.00;;;;;30.69;45.19;100494.38;5058387;28;47361;-68
2022/06/24 09:23:16;;;;;;;;;3.00;3.00;;;;;30.79;45.27;100474.69;5062171;27;45385;-68
2022/06/24 09:25:49;;;;;;;;;5.00;3.67;;;;;30.89;44.74;100485.88;5059273;28;45352;-67
2022/06/24 09:28:22;;;;;;;;;5.00;4.00;;;;;31.06;44.48;100479.88;5060986;28;45542;-68
2022/06/24 09:30:48;;;;;;;;;6.33;4.33;;;;;31.25;44.58;100477.25;5059813;28;46397;-67
2022/06/24 09:33:18;;;;;;;;;6.00;4.00;;;;;31.43;43.55;100467.28;5061975;28;45499;-68
2022/06/24 09:35:44;;;;;;;;;3.00;3.00;;;;;31.03;43.64;100476.81;5060618;28;45408;-68
2022/06/24 09:38:09;;;;;;;;;6.00;4.00;;;;;30.84;43.74;100471.84;5061538;28;45190;-67
2022/06/24 09:40:35;;;;;;;;;5.00;5.00;;;;;31.11;43.44;100465.00;5060138;28;46920;-68
2022/06/24 09:43:05;;;;;;;;;3.00;3.00;;;;;31.33;42.41;100469.06;5058346;28;45182;-69
2022/06/24 09:45:51;;;;;;;;;3.00;3.00;;;;;31.47;42.76;100457.97;5058630;28;45487;-68
2022/06/24 09:48:37;;;;;;;;;2.33;2.33;;;;;31.73;41.50;100449.34;5062274;28;45318;-68
2022/06/24 09:51:07;;;;;;;;;5.33;3.67;;;;;31.89;41.53;100465.75;5058476;28;46354;-67
2022/06/24 09:53:35;;;;;;;;;1.67;1.00;;;;;32.06;40.00;100452.09;5074385;28;45416;-67
2022/06/24 09:56:02;;;;;;;;;1.33;1.33;;;;;32.17;39.70;100466.06;5057831;28;45392;-69
2022/06/24 09:58:28;;;;;;;;;2.33;2.33;;;;;32.13;39.51;100454.53;5062419;28;45358;-68
2022/06/24 10:00:54;;;;;;;;;2.00;2.00;;;;;32.11;38.50;100456.81;5056552;28;45620;-68
2022/06/24 10:03:19;;;;;;;;;3.00;2.00;;;;;32.37;38.42;100451.75;5062402;28;45295;-67
2022/06/24 10:05:49;;;;;;;;;2.33;2.33;;;;;32.20;39.12;100448.59;5061054;28;45254;-67
2022/06/24 10:08:23;;;;;;;;;3.00;2.67;;;;;32.53;38.56;100458.00;5061790;28;45549;-67
2022/06/24 10:10:51;;;;;;;;;2.00;2.00;;;;;33.09;37.62;100453.31;5058486;28;46111;-67
2022/06/24 10:13:33;;;;;;;;;2.00;2.00;;;;;32.64;36.48;100456.75;5061098;28;45377;-66
2022/06/24 10:16:01;;;;;;;;;2.33;2.00;;;;;32.34;38.04;100456.00;5059142;28;45359;-67
2022/06/24 10:18:48;;;;;;;;;3.00;1.67;;;;;32.50;36.82;100465.09;5062375;28;45386;-67
2022/06/24 10:21:18;;;;;;;;;2.00;2.00;;;;;32.55;36.54;100455.75;5058718;28;46927;-65
2022/06/24 10:23:51;;;;;;;;;3.00;3.00;;;;;31.95;37.54;100458.09;5080827;27;45585;-65
2022/06/24 10:26:31;;;;;;;;;3.00;3.00;;;;;32.22;38.18;100451.97;5061296;28;45389;-65
2022/06/24 10:28:59;;;;;;;;;2.00;2.00;;;;;32.48;37.02;100456.13;5060440;28;45312;-67
2022/06/24 10:31:37;;;;;;;;;2.00;2.00;;;;;32.24;37.47;100452.47;5060196;28;47218;-66
2022/06/24 10:34:02;;;;;;;;;2.67;0.00;;;;;32.47;37.62;100455.28;5060903;28;45749;-68
2022/06/24 10:36:31;;;;;;;;;1.00;1.00;;;;;32.91;37.13;100454.16;5055886;28;45454;-67
2022/06/24 10:39:09;;;;;;;;;2.00;2.00;;;;;32.13;37.12;100453.72;5061450;28;45299;-68
2022/06/24 10:41:38;;;;;;;;;1.00;1.00;;;;;31.92;38.26;100442.69;5054035;28;46182;-68
2022/06/24 10:44:23;;;;;;;;;2.00;2.00;;;;;33.06;36.70;100439.84;5063025;28;45511;-68
2022/06/24 10:47:19;;;;;;;;;2.33;2.33;;;;;33.56;34.95;100432.56;5060084;28;45541;-68
2022/06/24 10:50:12;;;;;;;;;2.00;1.00;;;;;33.63;34.60;100432.16;5058535;28;45373;-68
2022/06/24 10:52:37;;;;;;;;;2.67;2.00;;;;;34.21;33.80;100418.38;5057945;28;45259;-68
2022/06/24 10:55:17;;;;;;;;;4.00;4.00;;;;;34.67;32.98;100429.53;5064638;28;45339;-69
2022/06/24 10:57:49;;;;;;;;;1.00;1.00;;;;;35.22;33.27;100417.28;5060201;28;45461;-67
2022/06/24 11:00:18;;;;;;;;;2.00;2.00;;;;;35.18;32.41;100411.44;5064128;28;45373;-68
2022/06/24 11:02:45;;;;;;;;;2.00;2.00;;;;;34.52;31.68;100432.69;5060754;28;45433;-67
2022/06/24 11:05:22;;;;;;;;;2.00;1.00;;;;;33.65;34.24;100424.25;5063774;28;45243;-67
2022/06/24 11:07:49;;;;;;;;;2.00;1.00;;;;;33.30;34.35;100424.88;5063050;28;45170;-69
2022/06/24 11:10:32;;;;;;;;;3.00;3.00;;;;;32.82;35.97;100428.66;5063449;28;45448;-67
2022/06/24 11:12:59;;;;;;;;;7.00;2.33;;;;;32.50;35.93;100424.88;5063651;28;47279;-68
2022/06/24 11:15:40;;;;;;;;;3.33;2.33;;;;;32.23;37.18;100426.34;5063268;28;45534;-69
2022/06/24 11:18:13;;;;;;;;;1.00;1.00;;;;;31.86;36.91;100432.63;5065134;28;45259;-68
2022/06/24 11:20:43;;;;;;;;;3.00;1.00;;;;;31.64;37.43;100427.50;5062858;28;45354;-68
2022/06/24 11:23:10;;;;;;;;;1.67;1.67;;;;;31.87;36.84;100423.06;5063391;28;45801;-68
2022/06/24 11:25:39;;;;;;;;;1.00;1.00;;;;;30.85;38.46;100428.66;5061073;28;45465;-68
2022/06/24 11:28:18;;;;;;;;;4.00;2.00;;;;;30.79;38.42;100429.81;5062042;28;45451;-68
2022/06/24 11:30:43;;;;;;;;;2.00;2.00;;;;;30.70;39.57;100425.94;5062296;28;45987;-68
2022/06/24 11:33:09;;;;;;;;;3.33;3.00;;;;;30.31;41.91;100434.25;5064886;28;45344;-69